Time;durP1;ratioP1;P1;durP2;ratioP2;P2;SDS_P1;SDS_P2;PMS_P1;PMS_P2;Temp;Humidity;BMP_temperature;BMP_pressure;BME280_temperature;BME280_humidity;BME280_pressure;Samples;Min_cycle;Max_cycle;Signal;HPM_P1;HPM_P2
2021/03/07 00:00:11;;;;;;;28.23;13.63;;;-1.30;98.10;;;;;;4854977;29;20097;-91
2021/03/07 00:02:37;;;;;;;28.25;13.65;;;-1.30;98.20;;;;;;4858760;29;20041;-93
2021/03/07 00:05:03;;;;;;;28.48;13.40;;;-1.30;98.30;;;;;;4859853;29;20476;-89
2021/03/07 00:07:29;;;;;;;32.78;14.30;;;-1.30;98.40;;;;;;4860651;29;20029;-91
2021/03/07 00:09:55;;;;;;;27.65;14.02;;;-1.40;98.50;;;;;;4859398;29;20025;-91
2021/03/07 00:12:20;;;;;;;28.77;14.55;;;-1.40;98.60;;;;;;4859050;29;20536;-93
2021/03/07 00:14:46;;;;;;;32.65;14.50;;;-1.30;98.80;;;;;;4858911;29;20052;-92
2021/03/07 00:17:12;;;;;;;29.48;13.63;;;-1.40;98.80;;;;;;4863693;29;20093;-92
2021/03/07 00:19:37;;;;;;;29.13;13.38;;;-1.40;99.00;;;;;;4883628;29;20075;-91
2021/03/07 00:22:03;;;;;;;36.47;14.80;;;-1.40;99.10;;;;;;4885576;29;20044;-91
2021/03/07 00:24:29;;;;;;;27.15;13.27;;;-1.50;99.20;;;;;;4883875;29;20033;-91
2021/03/07 00:26:54;;;;;;;34.20;16.08;;;-1.50;99.40;;;;;;4883317;29;20060;-91
2021/03/07 00:29:20;;;;;;;40.08;15.73;;;-1.50;99.60;;;;;;4881175;29;20029;-91
2021/03/07 00:31:46;;;;;;;35.13;16.38;;;-1.50;99.70;;;;;;4880203;29;20081;-90
2021/03/07 00:34:12;;;;;;;37.72;16.33;;;-1.60;99.90;;;;;;4880820;29;20467;-90
2021/03/07 00:36:37;;;;;;;45.55;18.00;;;-1.50;99.90;;;;;;4879642;29;20033;-91
2021/03/07 00:39:04;;;;;;;41.58;17.13;;;-1.50;99.90;;;;;;4879140;29;20138;-90
2021/03/07 00:41:30;;;;;;;41.00;17.42;;;-1.50;99.90;;;;;;4890635;29;20060;-93
2021/03/07 00:43:55;;;;;;;44.45;18.65;;;-1.50;99.90;;;;;;4882291;29;20028;-92
2021/03/07 00:46:21;;;;;;;34.50;16.30;;;-1.50;99.90;;;;;;4899160;29;20107;-93
2021/03/07 00:48:46;;;;;;;38.15;16.60;;;-1.50;99.90;;;;;;4881548;29;20037;-91
2021/03/07 00:51:12;;;;;;;32.53;16.20;;;-1.50;99.90;;;;;;4881450;29;20546;-93
2021/03/07 00:53:38;;;;;;;34.65;16.38;;;-1.50;99.90;;;;;;4881891;29;20040;-93
2021/03/07 00:56:03;;;;;;;45.10;18.98;;;-1.50;99.90;;;;;;4881782;29;20498;-90
2021/03/07 00:58:29;;;;;;;37.83;17.27;;;-1.50;99.90;;;;;;4898171;29;20036;-88
2021/03/07 01:00:55;;;;;;;41.03;18.75;;;-1.40;99.90;;;;;;4881146;29;20033;-90
2021/03/07 01:03:20;;;;;;;43.47;17.48;;;-1.50;99.90;;;;;;4881795;29;20036;-93
2021/03/07 01:05:46;;;;;;;45.22;19.50;;;-1.40;99.90;;;;;;4881753;29;20611;-90
2021/03/07 01:08:12;;;;;;;41.65;19.88;;;-1.40;99.90;;;;;;4881940;29;20546;-92
2021/03/07 01:10:40;;;;;;;51.95;21.20;;;-1.40;99.90;;;;;;4898351;29;20028;-90
2021/03/07 01:13:10;;;;;;;49.80;21.27;;;-1.40;99.90;;;;;;4881508;29;20068;-90
2021/03/07 01:15:36;;;;;;;45.10;19.55;;;-1.40;99.90;;;;;;4881312;29;20036;-92
2021/03/07 01:18:03;;;;;;;41.65;16.48;;;-1.40;99.90;;;;;;4881622;29;20036;-91
2021/03/07 01:20:29;;;;;;;45.33;19.98;;;-1.40;99.90;;;;;;4881320;29;20028;-91
2021/03/07 01:22:56;;;;;;;40.10;18.58;;;-1.40;99.90;;;;;;4881619;29;20080;-91
2021/03/07 01:25:27;;;;;;;53.50;21.58;;;-1.40;99.90;;;;;;4881478;29;20028;-90
2021/03/07 01:27:53;;;;;;;46.00;19.65;;;-1.40;99.90;;;;;;4881981;29;20112;-91
2021/03/07 01:30:22;;;;;;;44.45;18.45;;;-1.40;99.90;;;;;;4881244;29;20091;-92
2021/03/07 01:32:48;;;;;;;42.78;18.95;;;-1.40;99.90;;;;;;4881106;29;20127;-91
2021/03/07 01:35:14;;;;;;;46.47;20.15;;;-1.40;99.90;;;;;;4881467;29;20483;-90
2021/03/07 01:37:40;;;;;;;56.03;21.77;;;-1.40;99.90;;;;;;4885231;29;20049;-90
2021/03/07 01:40:12;;;;;;;51.50;20.42;;;-1.50;99.90;;;;;;4884614;29;20425;-91
2021/03/07 01:42:46;;;;;;;52.78;19.52;;;-1.50;99.90;;;;;;4885122;29;20104;-90
2021/03/07 01:45:12;;;;;;;45.88;18.40;;;-1.50;99.90;;;;;;4885046;29;20040;-91
2021/03/07 01:47:42;;;;;;;47.67;19.85;;;-1.50;99.90;;;;;;4884641;29;20791;-91
2021/03/07 01:50:08;;;;;;;52.75;21.13;;;-1.50;99.90;;;;;;4884511;29;20044;-91
2021/03/07 01:52:33;;;;;;;49.45;20.77;;;-1.50;99.90;;;;;;4884872;29;20092;-90
2021/03/07 01:54:59;;;;;;;50.38;20.58;;;-1.50;99.90;;;;;;4884954;29;20044;-89
2021/03/07 01:57:26;;;;;;;48.05;20.75;;;-1.40;99.90;;;;;;4885660;29;20032;-91
2021/03/07 01:59:56;;;;;;;47.28;20.67;;;-1.40;99.90;;;;;;4884201;29;20041;-90
2021/03/07 02:02:22;;;;;;;48.88;22.08;;;-1.40;99.90;;;;;;4883903;29;20044;-90
2021/03/07 02:04:48;;;;;;;50.92;22.88;;;-1.50;99.90;;;;;;4884342;29;20036;-90
2021/03/07 02:07:14;;;;;;;56.80;23.52;;;-1.50;99.90;;;;;;4884011;29;20047;-91
2021/03/07 02:09:39;;;;;;;42.15;19.52;;;-1.50;99.90;;;;;;4883837;29;20036;-90
2021/03/07 02:12:07;;;;;;;54.58;21.40;;;-1.50;99.90;;;;;;4883850;29;20033;-91
2021/03/07 02:14:34;;;;;;;48.05;21.02;;;-1.50;99.90;;;;;;4883447;29;20036;-90
2021/03/07 02:17:00;;;;;;;50.53;20.20;;;-1.50;99.90;;;;;;4883780;29;20056;-90
2021/03/07 02:19:33;;;;;;;46.40;18.80;;;-1.50;99.90;;;;;;4883411;29;20406;-91
2021/03/07 02:22:03;;;;;;;46.85;21.23;;;-1.50;99.90;;;;;;4883551;29;20035;-90
2021/03/07 02:24:31;;;;;;;50.15;20.13;;;-1.50;99.90;;;;;;4883806;29;20063;-92
2021/03/07 02:26:58;;;;;;;42.47;18.38;;;-1.50;99.90;;;;;;4884772;29;20074;-90
2021/03/07 02:29:24;;;;;;;46.53;20.60;;;-1.50;99.90;;;;;;4899498;29;20033;-89
2021/03/07 02:32:11;;;;;;;51.13;20.35;;;-1.50;99.90;;;;;;4883896;29;20053;-91
2021/03/07 02:35:07;;;;;;;47.75;20.65;;;-1.50;99.90;;;;;;4883798;29;20049;-90
2021/03/07 02:37:35;;;;;;;46.90;21.77;;;-1.50;99.90;;;;;;4882350;29;20092;-91
2021/03/07 02:40:03;;;;;;;50.72;22.85;;;-1.50;99.90;;;;;;4883457;29;20036;-91
2021/03/07 02:42:31;;;;;;;40.53;18.80;;;-1.50;99.90;;;;;;4883123;29;20056;-91
2021/03/07 02:45:13;;;;;;;43.17;20.95;;;-1.50;99.90;;;;;;4883631;29;20044;-91
2021/03/07 02:47:45;;;;;;;52.83;21.58;;;-1.50;99.90;;;;;;4882969;29;20052;-91
2021/03/07 02:50:15;;;;;;;45.65;20.25;;;-1.40;99.90;;;;;;4883237;29;20039;-92
2021/03/07 02:52:45;;;;;;;54.92;20.15;;;-1.40;99.90;;;;;;4883561;29;20036;-89
2021/03/07 02:55:12;;;;;;;48.47;20.70;;;-1.40;99.90;;;;;;4883464;29;20487;-90
2021/03/07 02:57:41;;;;;;;48.05;18.48;;;-1.40;99.90;;;;;;4883101;29;20052;-90
2021/03/07 03:00:08;;;;;;;45.53;17.83;;;-1.40;99.90;;;;;;4899548;29;20040;-91
2021/03/07 03:02:38;;;;;;;37.97;18.55;;;-1.40;99.90;;;;;;4883102;29;20132;-90
2021/03/07 03:05:04;;;;;;;42.42;18.80;;;-1.40;99.90;;;;;;4883813;29;20064;-89
2021/03/07 03:07:32;;;;;;;44.90;18.83;;;-1.40;99.90;;;;;;4883181;29;20086;-90
2021/03/07 03:10:04;;;;;;;46.92;19.23;;;-1.40;99.90;;;;;;4882779;29;20416;-94
2021/03/07 03:12:32;;;;;;;37.42;18.73;;;-1.40;99.90;;;;;;4899806;29;20506;-90
2021/03/07 03:14:59;;;;;;;45.88;19.92;;;-1.40;99.90;;;;;;4883491;29;20037;-89
2021/03/07 03:17:26;;;;;;;44.63;18.17;;;-1.50;99.90;;;;;;4900243;29;20467;-92
2021/03/07 03:19:53;;;;;;;36.45;17.92;;;-1.50;99.90;;;;;;4885599;29;20028;-89
2021/03/07 03:22:19;;;;;;;43.65;17.88;;;-1.50;99.90;;;;;;4888182;29;20029;-92
2021/03/07 03:24:45;;;;;;;44.80;18.92;;;-1.50;99.90;;;;;;4888359;29;20035;-90
2021/03/07 03:27:13;;;;;;;42.80;18.40;;;-1.50;99.90;;;;;;4888457;29;20029;-91
2021/03/07 03:29:40;;;;;;;41.42;20.55;;;-1.40;99.90;;;;;;4884787;29;20058;-91
2021/03/07 03:32:06;;;;;;;38.90;18.05;;;-1.40;99.90;;;;;;4885433;29;20028;-91
2021/03/07 03:34:32;;;;;;;43.58;19.30;;;-1.30;99.90;;;;;;4884460;29;20037;-92
2021/03/07 03:36:58;;;;;;;43.10;19.02;;;-1.30;99.90;;;;;;4900941;29;20024;-90
2021/03/07 03:39:28;;;;;;;41.42;19.17;;;-1.30;99.90;;;;;;4883384;29;20088;-91
2021/03/07 03:42:00;;;;;;;42.03;18.30;;;-1.20;99.90;;;;;;4883511;29;20074;-92
2021/03/07 03:44:31;;;;;;;38.88;17.35;;;-1.20;99.90;;;;;;4883261;29;20029;-90
2021/03/07 03:46:59;;;;;;;37.03;17.15;;;-1.20;99.90;;;;;;4882867;29;20112;-91
2021/03/07 03:49:55;;;;;;;38.47;18.10;;;-1.10;99.90;;;;;;4899747;29;20029;-92
2021/03/07 03:52:22;;;;;;;36.53;17.17;;;-1.10;99.90;;;;;;4895521;29;20104;-90
2021/03/07 03:55:14;;;;;;;45.53;18.60;;;-1.10;99.90;;;;;;4864366;29;20045;-91
2021/03/07 03:57:41;;;;;;;38.28;17.83;;;-1.10;99.90;;;;;;4881574;29;20052;-90
2021/03/07 04:00:12;;;;;;;38.13;16.60;;;-1.10;99.90;;;;;;4863639;29;20068;-91
2021/03/07 04:02:40;;;;;;;39.10;17.58;;;-1.10;99.90;;;;;;4864762;29;20067;-92
2021/03/07 04:05:08;;;;;;;44.00;18.67;;;-1.10;99.90;;;;;;4864018;29;20084;-92
2021/03/07 04:07:35;;;;;;;43.63;19.13;;;-1.10;99.90;;;;;;4880829;29;20063;-91
2021/03/07 04:10:05;;;;;;;36.80;16.55;;;-1.10;99.90;;;;;;4863270;29;20041;-92
2021/03/07 04:12:31;;;;;;;36.70;16.42;;;-1.10;99.90;;;;;;4863555;29;20045;-91
2021/03/07 04:14:57;;;;;;;36.83;16.48;;;-1.20;99.90;;;;;;4864648;29;20464;-91
2021/03/07 04:17:25;;;;;;;34.45;17.13;;;-1.20;99.90;;;;;;4864186;29;20036;-93
2021/03/07 04:19:51;;;;;;;39.65;15.90;;;-1.20;99.90;;;;;;4864107;29;20033;-92
2021/03/07 04:22:18;;;;;;;34.03;16.80;;;-1.10;99.90;;;;;;4863666;29;20092;-93
2021/03/07 04:24:44;;;;;;;42.35;16.48;;;-1.10;99.90;;;;;;4864454;29;20029;-90
2021/03/07 04:27:10;;;;;;;34.72;17.23;;;-1.10;99.90;;;;;;4864060;29;20056;-91
2021/03/07 04:29:37;;;;;;;36.17;15.23;;;-1.10;99.90;;;;;;4863526;29;20068;-91
2021/03/07 04:32:06;;;;;;;38.03;17.00;;;-1.10;99.90;;;;;;4879869;29;20043;-92
2021/03/07 04:34:33;;;;;;;38.88;16.92;;;-1.10;99.90;;;;;;4863393;29;20504;-92
2021/03/07 04:36:59;;;;;;;39.70;16.80;;;-1.00;99.90;;;;;;4863388;29;20029;-91
2021/03/07 04:39:24;;;;;;;35.08;16.92;;;-1.10;99.90;;;;;;4870781;29;20033;-92
2021/03/07 04:41:50;;;;;;;39.75;17.35;;;-1.10;99.90;;;;;;4882709;29;20051;-91
2021/03/07 04:44:16;;;;;;;41.15;17.27;;;-1.00;99.90;;;;;;4882880;29;20024;-92
2021/03/07 04:46:42;;;;;;;36.97;16.45;;;-1.00;99.90;;;;;;4883276;29;20047;-91
2021/03/07 04:49:08;;;;;;;30.48;15.32;;;-1.00;99.90;;;;;;4882875;29;20035;-90
2021/03/07 04:51:33;;;;;;;35.75;16.13;;;-1.00;99.90;;;;;;4882847;29;20024;-91
2021/03/07 04:53:59;;;;;;;36.53;16.85;;;-1.00;99.90;;;;;;4882576;29;20083;-92
2021/03/07 04:56:29;;;;;;;37.33;17.92;;;-1.00;99.90;;;;;;4883374;29;20056;-92
2021/03/07 04:58:55;;;;;;;36.05;16.52;;;-1.00;99.90;;;;;;4882488;29;20028;-92
2021/03/07 05:01:21;;;;;;;32.92;16.42;;;-1.00;99.90;;;;;;4882413;29;20037;-92
2021/03/07 05:03:47;;;;;;;40.03;17.88;;;-1.00;99.90;;;;;;4882264;29;20059;-93
2021/03/07 05:06:13;;;;;;;36.30;16.75;;;-1.00;99.90;;;;;;4883030;29;20085;-93
2021/03/07 05:08:39;;;;;;;36.55;17.00;;;-1.00;99.90;;;;;;4900513;29;20047;-92
2021/03/07 05:11:05;;;;;;;36.90;17.02;;;-0.90;99.90;;;;;;4882253;29;20168;-92
2021/03/07 05:13:31;;;;;;;38.35;15.85;;;-0.90;99.90;;;;;;4899246;29;20052;-90
2021/03/07 05:15:57;;;;;;;35.28;17.70;;;-0.90;99.90;;;;;;4881735;29;20037;-90
2021/03/07 05:18:23;;;;;;;38.45;17.85;;;-0.80;99.90;;;;;;4863286;29;20025;-90
2021/03/07 05:20:49;;;;;;;37.58;17.55;;;-0.80;99.90;;;;;;4863553;29;20148;-91
2021/03/07 05:23:15;;;;;;;36.50;18.92;;;-0.80;99.90;;;;;;4863155;29;20060;-92
2021/03/07 05:25:40;;;;;;;37.75;17.25;;;-0.80;99.90;;;;;;4864105;29;20029;-92
2021/03/07 05:28:06;;;;;;;34.50;16.63;;;-0.70;99.90;;;;;;4864200;29;20029;-91
2021/03/07 05:30:32;;;;;;;38.65;17.15;;;-0.70;99.90;;;;;;4863020;29;20037;-91
2021/03/07 05:32:58;;;;;;;39.35;16.73;;;-0.70;99.90;;;;;;4863547;29;20551;-90
2021/03/07 05:35:24;;;;;;;38.67;18.15;;;-0.70;99.90;;;;;;4863821;29;20055;-92
2021/03/07 05:37:50;;;;;;;38.22;16.90;;;-0.70;99.90;;;;;;4864318;29;20037;-92
2021/03/07 05:40:17;;;;;;;40.35;17.52;;;-0.70;99.90;;;;;;4864234;29;20064;-91
2021/03/07 05:42:43;;;;;;;37.53;17.27;;;-0.70;99.90;;;;;;4863755;29;20065;-94
2021/03/07 05:45:10;;;;;;;34.58;17.13;;;-0.70;99.90;;;;;;4863179;29;20037;-93
2021/03/07 05:47:35;;;;;;;35.00;17.05;;;-0.70;99.90;;;;;;4863521;29;20064;-96
2021/03/07 05:50:01;;;;;;;33.35;17.02;;;-0.60;99.90;;;;;;4862723;29;20067;-95
2021/03/07 05:52:27;;;;;;;36.83;17.17;;;-0.70;99.90;;;;;;4862817;29;20040;-92
2021/03/07 05:54:54;;;;;;;33.20;17.10;;;-0.70;99.90;;;;;;4863496;29;20506;-92
2021/03/07 05:57:25;;;;;;;37.97;18.27;;;-0.70;99.90;;;;;;4862986;29;20085;-91
2021/03/07 05:59:51;;;;;;;38.20;17.88;;;-0.70;99.90;;;;;;4862662;29;20057;-95
2021/03/07 06:02:18;;;;;;;38.08;17.58;;;-0.70;99.90;;;;;;4863159;29;20040;-92
2021/03/07 06:04:50;;;;;;;40.83;17.65;;;-0.60;99.90;;;;;;4863011;29;20043;-92
2021/03/07 06:07:16;;;;;;;39.20;17.52;;;-0.60;99.90;;;;;;4862933;29;20074;-92
2021/03/07 06:09:41;;;;;;;38.03;15.85;;;-0.60;99.90;;;;;;4863994;29;20033;-93
2021/03/07 06:12:18;;;;;;;35.47;16.30;;;-0.60;99.90;;;;;;4864050;29;20037;-94
2021/03/07 06:14:45;;;;;;;35.25;16.58;;;-0.60;99.90;;;;;;4863901;29;20049;-92
2021/03/07 06:17:14;;;;;;;29.42;14.82;;;-0.60;99.90;;;;;;4864522;29;20036;-94
2021/03/07 06:19:56;;;;;;;35.72;15.70;;;-0.60;99.90;;;;;;4864327;29;20045;-91
2021/03/07 06:22:22;;;;;;;30.48;15.77;;;-0.70;99.90;;;;;;4863949;29;20025;-95
2021/03/07 06:24:49;;;;;;;28.30;15.18;;;-0.70;99.90;;;;;;4866314;29;20509;-94
2021/03/07 06:27:17;;;;;;;30.90;15.02;;;-0.70;99.90;;;;;;4867306;29;20024;-90
2021/03/07 06:30:11;;;;;;;33.45;13.68;;;-0.70;99.90;;;;;;4874727;29;20033;-92
2021/03/07 06:32:37;;;;;;;36.85;16.48;;;-0.70;99.90;;;;;;4868554;29;20029;-91
2021/03/07 06:35:09;;;;;;;34.22;15.85;;;-0.80;99.90;;;;;;4871240;29;20112;-92
2021/03/07 06:37:56;;;;;;;36.17;15.30;;;-0.80;99.90;;;;;;4885845;29;20035;-93
2021/03/07 06:40:28;;;;;;;31.55;15.63;;;-0.80;99.90;;;;;;4865992;29;20038;-92
2021/03/07 06:42:54;;;;;;;34.60;15.52;;;-0.80;99.90;;;;;;4867628;29;20029;-91
2021/03/07 06:45:20;;;;;;;33.38;15.57;;;-0.80;99.90;;;;;;4867178;29;20152;-93
2021/03/07 06:47:54;;;;;;;32.38;16.05;;;-0.80;99.90;;;;;;4867182;29;20081;-92
2021/03/07 06:50:21;;;;;;;36.08;17.20;;;-0.90;99.90;;;;;;4866505;29;20069;-92
2021/03/07 06:52:58;;;;;;;34.95;15.60;;;-0.80;99.90;;;;;;4867039;29;20029;-92
2021/03/07 06:55:26;;;;;;;36.92;16.95;;;-0.80;99.90;;;;;;4883136;29;20392;-91
2021/03/07 06:57:53;;;;;;;37.97;16.30;;;-0.80;99.90;;;;;;4863154;29;20072;-91
2021/03/07 07:00:38;;;;;;;35.08;16.15;;;-0.70;99.90;;;;;;4865313;29;20077;-92
2021/03/07 07:03:10;;;;;;;34.38;16.95;;;-0.70;99.90;;;;;;4865043;29;20113;-90
2021/03/07 07:05:39;;;;;;;47.00;18.45;;;-0.70;99.90;;;;;;4871524;29;20030;-91
2021/03/07 07:08:07;;;;;;;37.42;17.58;;;-0.60;99.90;;;;;;4865662;29;20036;-92
2021/03/07 07:10:52;;;;;;;39.25;15.85;;;-0.60;99.90;;;;;;4865391;29;20033;-94
2021/03/07 07:13:23;;;;;;;38.53;16.73;;;-0.60;99.90;;;;;;4869814;29;20041;-94
2021/03/07 07:15:56;;;;;;;40.05;17.50;;;-0.60;99.90;;;;;;4865308;29;20021;-92
2021/03/07 07:18:23;;;;;;;40.40;17.45;;;-0.60;99.90;;;;;;4864378;29;20029;-93
2021/03/07 07:20:51;;;;;;;41.95;18.67;;;-0.60;99.90;;;;;;4880856;29;20028;-93
2021/03/07 07:23:18;;;;;;;38.60;17.05;;;-0.50;99.90;;;;;;4865276;29;20029;-94
2021/03/07 07:25:44;;;;;;;37.50;17.13;;;-0.50;99.90;;;;;;4865342;29;20181;-94
2021/03/07 07:28:10;;;;;;;39.55;18.35;;;-0.50;99.90;;;;;;4865327;29;20017;-92
2021/03/07 07:30:36;;;;;;;39.38;17.65;;;-0.50;99.90;;;;;;4865199;29;20037;-94
2021/03/07 07:33:03;;;;;;;29.92;15.52;;;-0.50;99.90;;;;;;4865811;29;20081;-93
2021/03/07 07:35:29;;;;;;;34.10;17.25;;;-0.50;99.90;;;;;;4866286;29;20037;-94
2021/03/07 07:38:03;;;;;;;38.58;16.83;;;-0.40;99.90;;;;;;4867945;29;20025;-95
2021/03/07 07:40:38;;;;;;;36.78;16.27;;;-0.40;99.90;;;;;;4864754;29;20045;-94
2021/03/07 07:43:04;;;;;;;36.72;16.85;;;-0.40;99.90;;;;;;4864627;29;20391;-92
2021/03/07 07:45:32;;;;;;;38.88;15.70;;;-0.30;99.90;;;;;;4861770;29;20036;-93
2021/03/07 07:47:58;;;;;;;39.08;16.65;;;-0.30;99.90;;;;;;4864998;29;20033;-93
2021/03/07 07:50:33;;;;;;;31.27;15.40;;;-0.40;99.90;;;;;;4868219;29;20084;-94
2021/03/07 07:53:03;;;;;;;35.38;16.30;;;-0.30;99.90;;;;;;4863067;29;20051;-92
2021/03/07 07:55:49;;;;;;;33.90;17.33;;;-0.30;99.90;;;;;;4870342;29;20035;-93
2021/03/07 07:58:37;;;;;;;34.47;16.40;;;-0.30;99.90;;;;;;4863611;29;20360;-92
2021/03/07 08:01:05;;;;;;;30.42;15.70;;;-0.30;99.90;;;;;;4864088;29;20041;-92
2021/03/07 08:03:35;;;;;;;41.65;17.08;;;-0.30;99.90;;;;;;4863824;29;20037;-92
2021/03/07 08:06:04;;;;;;;36.45;16.67;;;-0.20;99.90;;;;;;4862822;29;20036;-93
2021/03/07 08:08:38;;;;;;;33.38;16.55;;;-0.20;99.90;;;;;;4864478;29;20089;-93
2021/03/07 08:11:06;;;;;;;31.67;15.02;;;-0.20;99.90;;;;;;4864019;29;20025;-91
2021/03/07 08:13:34;;;;;;;39.28;16.92;;;-0.20;99.90;;;;;;4861757;29;20041;-93
2021/03/07 08:16:02;;;;;;;34.25;16.25;;;-0.10;99.90;;;;;;4863755;29;20021;-92
2021/03/07 08:18:56;;;;;;;34.38;16.80;;;-0.10;99.90;;;;;;4881924;29;20039;-92
2021/03/07 08:21:23;;;;;;;38.33;17.52;;;-0.10;99.90;;;;;;4862791;29;20037;-92
2021/03/07 08:23:57;;;;;;;40.15;17.48;;;0.00;99.90;;;;;;4881705;29;20108;-94
2021/03/07 08:26:42;;;;;;;45.05;18.67;;;0.10;99.90;;;;;;4863270;29;20035;-95
2021/03/07 08:29:36;;;;;;;32.97;16.45;;;0.10;99.90;;;;;;4864606;29;20032;-94
2021/03/07 08:32:25;;;;;;;35.13;15.98;;;0.20;99.90;;;;;;4864070;29;20029;-92
2021/03/07 08:34:51;;;;;;;35.47;16.85;;;0.20;99.90;;;;;;4853663;29;20041;-94
2021/03/07 08:37:16;;;;;;;37.20;17.42;;;0.30;99.90;;;;;;4865180;29;20128;-92
2021/03/07 08:39:42;;;;;;;36.33;17.08;;;0.30;99.90;;;;;;4864656;29;20029;-94
2021/03/07 08:42:08;;;;;;;37.83;16.95;;;0.40;99.90;;;;;;4862790;29;20105;-94
2021/03/07 08:44:34;;;;;;;37.45;18.55;;;0.40;99.90;;;;;;4863713;29;20029;-93
2021/03/07 08:47:01;;;;;;;46.25;20.85;;;0.50;99.90;;;;;;4863359;29;20044;-93
2021/03/07 08:49:30;;;;;;;36.42;16.80;;;0.50;99.90;;;;;;4866548;29;20029;-94
2021/03/07 08:52:04;;;;;;;32.50;15.00;;;0.60;99.90;;;;;;4867005;29;20033;-93
2021/03/07 08:54:33;;;;;;;27.70;14.15;;;0.60;99.90;;;;;;4866639;29;20117;-93
2021/03/07 08:57:07;;;;;;;37.35;18.42;;;0.70;99.90;;;;;;4868567;29;20045;-94
2021/03/07 08:59:34;;;;;;;37.90;17.17;;;0.80;99.90;;;;;;4865820;29;20049;-94
2021/03/07 09:02:02;;;;;;;31.10;16.70;;;0.90;99.90;;;;;;4873819;29;20109;-93
2021/03/07 09:04:36;;;;;;;33.08;16.10;;;1.00;99.90;;;;;;4876116;29;20037;-92
2021/03/07 09:07:02;;;;;;;37.70;18.38;;;1.10;99.90;;;;;;4876307;29;20025;-90
2021/03/07 09:09:28;;;;;;;31.52;16.63;;;1.20;99.90;;;;;;4882162;29;20126;-92
2021/03/07 09:12:05;;;;;;;40.88;17.80;;;1.30;99.90;;;;;;4881913;29;20018;-92
2021/03/07 09:14:40;;;;;;;40.55;18.13;;;1.50;99.90;;;;;;4879836;29;20177;-91
2021/03/07 09:17:09;;;;;;;46.67;19.38;;;1.60;99.90;;;;;;4874538;29;20025;-91
2021/03/07 09:19:41;;;;;;;40.35;18.25;;;1.70;99.90;;;;;;4869086;29;20030;-91
2021/03/07 09:22:30;;;;;;;41.47;18.52;;;1.80;99.90;;;;;;4871712;29;20026;-92
2021/03/07 09:25:12;;;;;;;42.38;19.10;;;1.90;99.90;;;;;;4872263;29;20165;-93
2021/03/07 09:27:42;;;;;;;38.47;17.70;;;2.00;99.90;;;;;;4871202;29;20128;-90
2021/03/07 09:30:08;;;;;;;43.10;19.42;;;2.10;99.90;;;;;;4870718;29;20057;-92
2021/03/07 09:32:46;;;;;;;47.72;20.55;;;2.20;99.90;;;;;;4874190;29;20037;-89
2021/03/07 09:35:31;;;;;;;37.72;18.42;;;2.30;99.90;;;;;;4871495;29;20057;-95
2021/03/07 09:38:08;;;;;;;54.58;19.65;;;2.40;99.90;;;;;;4868358;29;20037;-91
2021/03/07 09:40:40;;;;;;;47.35;18.70;;;2.60;99.90;;;;;;4871975;29;20057;-92
2021/03/07 09:43:10;;;;;;;41.33;18.55;;;2.70;99.90;;;;;;4864647;29;20051;-92
2021/03/07 09:45:44;;;;;;;38.25;16.25;;;2.90;99.90;;;;;;4869994;29;20540;-91
2021/03/07 09:48:10;;;;;;;36.38;16.77;;;3.00;99.90;;;;;;4874656;29;20029;-89
2021/03/07 09:50:36;;;;;;;35.67;17.08;;;3.30;99.90;;;;;;4882172;29;20018;-88
2021/03/07 09:53:04;;;;;;;38.97;16.42;;;3.50;99.90;;;;;;4879311;29;20543;-90
2021/03/07 09:55:34;;;;;;;33.42;16.17;;;3.70;99.90;;;;;;4869195;29;20349;-93
2021/03/07 09:58:05;;;;;;;34.33;16.02;;;4.00;99.90;;;;;;4872466;29;20052;-91
2021/03/07 10:00:33;;;;;;;37.70;16.73;;;4.30;99.90;;;;;;4872887;29;20456;-93
2021/03/07 10:02:59;;;;;;;33.60;15.43;;;4.60;99.90;;;;;;4871321;29;20038;-93
2021/03/07 10:05:25;;;;;;;32.58;14.30;;;5.00;99.90;;;;;;4871903;29;20169;-93
2021/03/07 10:07:51;;;;;;;26.70;14.00;;;5.30;99.90;;;;;;4866547;29;20091;-91
2021/03/07 10:10:20;;;;;;;25.42;13.00;;;5.60;99.90;;;;;;4866318;29;20045;-92
2021/03/07 10:12:55;;;;;;;28.38;11.70;;;5.80;99.50;;;;;;4864548;29;20456;-92
2021/03/07 10:15:27;;;;;;;27.48;12.20;;;6.20;98.60;;;;;;4863708;29;20030;-93
2021/03/07 10:17:54;;;;;;;24.40;12.60;;;6.50;97.70;;;;;;4856878;29;20076;-87
2021/03/07 10:20:20;;;;;;;23.40;12.15;;;6.70;96.70;;;;;;4866446;29;20033;-91
2021/03/07 10:22:48;;;;;;;25.67;11.43;;;7.00;95.50;;;;;;4865775;29;20022;-91
2021/03/07 10:25:27;;;;;;;21.30;11.45;;;7.20;94.10;;;;;;4867169;29;20504;-92
2021/03/07 10:27:56;;;;;;;22.75;11.38;;;7.60;93.60;;;;;;4871513;29;20128;-92
2021/03/07 10:30:44;;;;;;;24.13;11.40;;;7.80;92.50;;;;;;4865376;29;20025;-92
2021/03/07 10:33:18;;;;;;;24.17;12.07;;;8.10;91.70;;;;;;4864272;29;20101;-86
2021/03/07 10:36:02;;;;;;;28.15;12.73;;;8.30;90.60;;;;;;4878193;29;20048;-91
2021/03/07 10:38:29;;;;;;;22.70;11.93;;;8.50;90.00;;;;;;4868519;29;20064;-92
2021/03/07 10:40:56;;;;;;;22.33;11.82;;;8.80;88.70;;;;;;4864450;29;20531;-91
2021/03/07 10:43:22;;;;;;;27.30;11.50;;;9.00;86.90;;;;;;4865789;29;20034;-94
2021/03/07 10:45:48;;;;;;;24.23;12.55;;;9.20;85.40;;;;;;4864551;29;20037;-93
2021/03/07 10:48:15;;;;;;;29.30;14.13;;;9.40;84.40;;;;;;4866107;29;20022;-93
2021/03/07 10:50:45;;;;;;;28.08;12.32;;;9.50;83.20;;;;;;4863408;29;20038;-93
2021/03/07 10:53:12;;;;;;;24.48;13.18;;;9.80;82.80;;;;;;4865151;29;20065;-93
2021/03/07 10:55:38;;;;;;;26.60;12.60;;;9.90;81.20;;;;;;4867787;29;20030;-91
2021/03/07 10:58:04;;;;;;;25.88;12.23;;;10.10;79.60;;;;;;4850348;29;20040;-93
2021/03/07 11:00:30;;;;;;;23.02;11.05;;;10.20;79.10;;;;;;4864660;29;20057;-93
2021/03/07 11:02:56;;;;;;;21.13;11.40;;;10.30;78.50;;;;;;4864451;29;20412;-94
2021/03/07 11:05:22;;;;;;;22.20;12.38;;;10.40;77.60;;;;;;4865696;29;20177;-89
2021/03/07 11:07:48;;;;;;;25.65;12.93;;;10.40;76.60;;;;;;4862138;29;20038;-91
2021/03/07 11:10:17;;;;;;;24.55;12.77;;;10.50;76.30;;;;;;4863295;29;20038;-90
2021/03/07 11:12:43;;;;;;;25.10;12.95;;;10.70;76.80;;;;;;4861648;29;20058;-93
2021/03/07 11:15:11;;;;;;;25.58;11.68;;;11.00;75.70;;;;;;4865406;29;20041;-91
2021/03/07 11:17:37;;;;;;;19.73;11.38;;;11.30;75.20;;;;;;4863548;29;20038;-94
2021/03/07 11:20:05;;;;;;;25.73;13.13;;;11.60;74.00;;;;;;4870074;29;20030;-93
2021/03/07 11:22:31;;;;;;;23.40;11.65;;;11.80;72.80;;;;;;4880859;29;20074;-92
2021/03/07 11:24:57;;;;;;;22.88;12.77;;;11.90;72.10;;;;;;4851622;29;20472;-94
2021/03/07 11:27:23;;;;;;;23.92;12.65;;;12.00;71.40;;;;;;4866761;29;20109;-85
2021/03/07 11:29:48;;;;;;;25.15;13.02;;;12.20;70.80;;;;;;4866751;29;20037;-87
2021/03/07 11:32:14;;;;;;;23.52;12.05;;;12.30;70.10;;;;;;4883532;29;20017;-87
2021/03/07 11:34:40;;;;;;;23.45;12.52;;;12.30;69.00;;;;;;4879792;29;20098;-92
2021/03/07 11:37:05;;;;;;;26.23;12.80;;;12.40;69.30;;;;;;4877372;29;20018;-86
2021/03/07 11:39:31;;;;;;;22.52;12.75;;;12.50;68.70;;;;;;4883998;29;20021;-89
2021/03/07 11:41:57;;;;;;;23.65;12.65;;;12.60;68.10;;;;;;4885266;29;20059;-87
2021/03/07 11:44:23;;;;;;;23.45;13.27;;;12.70;67.80;;;;;;4881079;29;20060;-86
2021/03/07 11:46:53;;;;;;;22.30;13.05;;;12.80;67.70;;;;;;4886587;29;20027;-90
2021/03/07 11:49:22;;;;;;;22.55;13.20;;;12.90;67.30;;;;;;4885915;29;20024;-86
2021/03/07 11:51:47;;;;;;;20.98;11.95;;;12.90;67.00;;;;;;4868483;29;20034;-89
2021/03/07 11:54:13;;;;;;;28.45;14.32;;;13.00;66.70;;;;;;4872271;29;20134;-86
2021/03/07 11:56:39;;;;;;;26.08;14.65;;;13.00;66.20;;;;;;4870409;29;20109;-89
2021/03/07 11:59:05;;;;;;;27.50;15.68;;;13.00;65.70;;;;;;4865799;29;20178;-86
2021/03/07 12:01:31;;;;;;;30.60;15.27;;;12.80;65.70;;;;;;4866332;29;20025;-93
2021/03/07 12:03:58;;;;;;;27.55;14.23;;;12.60;65.90;;;;;;4870682;29;20042;-88
2021/03/07 12:06:26;;;;;;;28.63;15.38;;;12.30;66.40;;;;;;4875250;29;20030;-94
2021/03/07 12:08:52;;;;;;;27.35;15.18;;;12.20;66.80;;;;;;4874103;29;20044;-94
2021/03/07 12:11:18;;;;;;;27.95;14.98;;;12.20;66.90;;;;;;4881729;29;20029;-91
2021/03/07 12:13:45;;;;;;;25.65;13.05;;;12.30;66.80;;;;;;4883483;29;20042;-87
2021/03/07 12:16:10;;;;;;;25.60;14.10;;;12.60;66.60;;;;;;4885164;29;20021;-88
2021/03/07 12:18:38;;;;;;;22.15;12.40;;;13.10;66.20;;;;;;4885031;29;20060;-88
2021/03/07 12:21:05;;;;;;;22.73;12.65;;;13.50;65.20;;;;;;4867194;29;20030;-92
2021/03/07 12:23:31;;;;;;;22.02;12.20;;;13.90;64.10;;;;;;4888513;29;20044;-90
2021/03/07 12:25:57;;;;;;;22.52;12.60;;;14.30;64.10;;;;;;4903613;29;20032;-90
2021/03/07 12:28:23;;;;;;;20.42;12.20;;;14.50;62.10;;;;;;4903193;29;20025;-87
2021/03/07 12:30:48;;;;;;;18.23;11.85;;;14.50;61.20;;;;;;4899619;29;20018;-94
2021/03/07 12:33:14;;;;;;;20.90;10.90;;;14.70;60.90;;;;;;4878576;29;20061;-92
2021/03/07 12:35:40;;;;;;;17.77;10.82;;;14.90;60.40;;;;;;4880822;29;20033;-87